Time;durP1;ratioP1;P1;durP2;ratioP2;P2;SDS_P1;SDS_P2;PMS_P1;PMS_P2;Temp;Humidity;BMP_temperature;BMP_pressure;BME280_temperature;BME280_humidity;BME280_pressure;Samples;Min_cycle;Max_cycle;Signal;HPM_P1;HPM_P2
2022/10/16 00:00:18;;;;;;;3.22;0.88;;;12.10;99.90;;;;;;5036502;28;20048;-63
2022/10/16 00:02:43;;;;;;;1.95;0.82;;;12.10;99.90;;;;;;5054662;28;20069;-64
2022/10/16 00:05:09;;;;;;;2.97;0.80;;;12.10;99.90;;;;;;5054618;28;20487;-63
2022/10/16 00:07:35;;;;;;;1.13;0.70;;;12.10;99.90;;;;;;5036698;28;20051;-63
2022/10/16 00:10:00;;;;;;;1.92;0.57;;;12.10;99.90;;;;;;5036658;28;20037;-63
2022/10/16 00:12:26;;;;;;;0.93;0.73;;;12.10;99.90;;;;;;5036631;28;20128;-64
2022/10/16 00:14:52;;;;;;;1.85;0.85;;;12.10;99.90;;;;;;5053945;28;20045;-63
2022/10/16 00:17:17;;;;;;;5.32;1.10;;;12.10;99.90;;;;;;5054341;28;20049;-64
2022/10/16 00:19:43;;;;;;;0.50;0.50;;;12.10;99.90;;;;;;5054370;28;20480;-64
2022/10/16 00:22:09;;;;;;;3.03;0.77;;;12.10;99.90;;;;;;5054048;28;20045;-63
2022/10/16 00:24:34;;;;;;;1.38;0.70;;;12.10;99.90;;;;;;5054148;28;20104;-63
2022/10/16 00:27:00;;;;;;;1.33;0.57;;;12.10;99.90;;;;;;5054171;28;20048;-63
2022/10/16 00:29:26;;;;;;;3.38;0.80;;;12.10;99.90;;;;;;5036132;28;20130;-63
2022/10/16 00:31:51;;;;;;;2.10;0.82;;;12.10;99.90;;;;;;5054018;28;20446;-63
2022/10/16 00:34:17;;;;;;;1.17;0.70;;;12.10;99.90;;;;;;5036004;28;20444;-63
2022/10/16 00:36:43;;;;;;;3.25;0.88;;;12.10;99.90;;;;;;5053941;28;20103;-63
2022/10/16 00:39:08;;;;;;;1.75;0.82;;;12.30;99.90;;;;;;5035994;28;20123;-64
2022/10/16 00:41:34;;;;;;;2.72;0.88;;;12.10;99.90;;;;;;5053821;28;20033;-63
2022/10/16 00:44:02;;;;;;;4.20;0.98;;;12.40;99.90;;;;;;5035688;28;20543;-63
2022/10/16 00:46:40;;;;;;;3.33;0.70;;;12.10;99.90;;;;;;5035893;28;20542;-63
2022/10/16 00:49:12;;;;;;;3.08;0.52;;;12.10;99.90;;;;;;5053458;28;20049;-63
2022/10/16 00:51:39;;;;;;;1.45;0.55;;;12.00;99.90;;;;;;5053541;28;20041;-63
2022/10/16 00:54:10;;;;;;;2.25;0.80;;;12.10;99.90;;;;;;5053676;28;20033;-63
2022/10/16 00:56:35;;;;;;;1.77;0.90;;;12.00;99.90;;;;;;5053514;28;20072;-63
2022/10/16 00:59:04;;;;;;;2.65;0.88;;;12.10;99.90;;;;;;5035598;28;20041;-63
2022/10/16 01:01:30;;;;;;;1.25;0.45;;;12.10;99.90;;;;;;5053493;28;20111;-63
2022/10/16 01:03:56;;;;;;;3.50;0.65;;;12.00;99.90;;;;;;5034881;28;20183;-63
2022/10/16 01:06:24;;;;;;;2.20;0.95;;;12.10;99.90;;;;;;5052921;28;20106;-63
2022/10/16 01:09:12;;;;;;;2.00;0.73;;;12.10;99.90;;;;;;5035156;28;20053;-64
2022/10/16 01:11:59;;;;;;;1.80;0.85;;;12.10;99.90;;;;;;5053248;28;20492;-63
2022/10/16 01:14:33;;;;;;;2.83;0.93;;;12.10;99.90;;;;;;5035204;28;20528;-63
2022/10/16 01:17:13;;;;;;;4.03;0.90;;;12.10;99.90;;;;;;5053188;28;20056;-63
2022/10/16 01:20:09;;;;;;;2.05;0.85;;;12.10;99.90;;;;;;5018494;28;20120;-64
2022/10/16 01:23:02;;;;;;;3.30;0.80;;;12.10;99.90;;;;;;5051597;28;20044;-63
2022/10/16 01:25:53;;;;;;;1.42;0.70;;;12.10;99.90;;;;;;5034944;28;20479;-63
2022/10/16 01:28:22;;;;;;;1.48;0.80;;;12.10;99.90;;;;;;5052982;28;20493;-64
2022/10/16 01:30:53;;;;;;;2.10;0.70;;;12.10;99.90;;;;;;5052928;28;20033;-63
2022/10/16 01:33:26;;;;;;;0.47;0.47;;;12.10;99.90;;;;;;5052923;28;20044;-64
2022/10/16 01:35:55;;;;;;;2.15;0.80;;;12.10;99.90;;;;;;5034572;28;20049;-63
2022/10/16 01:38:34;;;;;;;3.70;0.73;;;12.10;99.90;;;;;;5052834;28;20412;-63
2022/10/16 01:41:04;;;;;;;0.70;0.70;;;12.10;99.90;;;;;;5052421;28;20072;-63
2022/10/16 01:43:36;;;;;;;0.60;0.50;;;12.20;99.90;;;;;;5052770;28;20179;-63
2022/10/16 01:46:02;;;;;;;1.17;0.68;;;12.20;99.90;;;;;;5052662;28;20373;-64
2022/10/16 01:48:31;;;;;;;0.98;0.70;;;12.20;99.90;;;;;;5052710;28;20037;-63
2022/10/16 01:51:11;;;;;;;2.00;0.80;;;12.20;99.90;;;;;;5052597;28;20510;-64
2022/10/16 01:53:39;;;;;;;4.97;0.95;;;12.30;99.90;;;;;;5052533;28;20071;-63
2022/10/16 01:56:08;;;;;;;1.17;0.65;;;12.20;99.90;;;;;;5052104;28;20076;-63
2022/10/16 01:58:39;;;;;;;1.50;0.73;;;12.30;99.90;;;;;;5034233;28;20123;-63
2022/10/16 02:01:08;;;;;;;0.52;0.52;;;12.30;99.90;;;;;;5052496;28;20082;-63
2022/10/16 02:03:36;;;;;;;1.65;0.88;;;12.30;99.90;;;;;;5052001;28;20037;-63
2022/10/16 02:06:02;;;;;;;1.20;0.73;;;12.30;99.90;;;;;;5052328;28;20043;-63
2022/10/16 02:08:30;;;;;;;1.38;0.82;;;12.70;99.90;;;;;;5052100;28;20044;-63
2022/10/16 02:11:01;;;;;;;1.42;0.73;;;12.30;99.90;;;;;;5052238;28;20382;-63
2022/10/16 02:13:35;;;;;;;1.23;0.93;;;12.30;99.90;;;;;;5034333;28;20045;-63
2022/10/16 02:16:01;;;;;;;0.77;0.75;;;12.30;99.90;;;;;;5050789;28;20099;-62
2022/10/16 02:18:29;;;;;;;0.68;0.68;;;12.20;99.90;;;;;;5052119;28;20041;-63
2022/10/16 02:21:18;;;;;;;1.80;0.85;;;12.30;99.90;;;;;;5051868;28;20076;-63
2022/10/16 02:23:44;;;;;;;1.85;0.75;;;12.30;99.90;;;;;;5052112;28;20115;-63
2022/10/16 02:26:14;;;;;;;3.65;0.82;;;12.20;99.90;;;;;;5052107;28;20052;-63
2022/10/16 02:28:47;;;;;;;1.20;0.77;;;12.30;99.90;;;;;;5052062;28;20040;-63
2022/10/16 02:31:20;;;;;;;1.48;0.90;;;12.30;99.90;;;;;;5052059;28;20303;-63
2022/10/16 02:33:46;;;;;;;1.63;0.80;;;12.30;99.90;;;;;;5052073;28;20119;-63
2022/10/16 02:36:12;;;;;;;1.27;0.70;;;12.30;99.90;;;;;;5034263;28;20048;-63
2022/10/16 02:38:39;;;;;;;1.10;0.82;;;12.30;99.90;;;;;;5051982;28;20040;-63
2022/10/16 02:41:05;;;;;;;2.55;1.10;;;12.30;99.90;;;;;;5052057;28;20527;-63
2022/10/16 02:43:33;;;;;;;0.85;0.63;;;12.30;99.90;;;;;;5051627;28;20056;-63
2022/10/16 02:45:59;;;;;;;2.35;0.98;;;12.30;99.90;;;;;;5051616;28;20049;-63
2022/10/16 02:48:24;;;;;;;1.10;0.80;;;12.30;99.90;;;;;;5051647;28;20094;-63
2022/10/16 02:50:50;;;;;;;1.63;1.02;;;12.40;99.90;;;;;;5033990;28;20041;-63
2022/10/16 02:53:16;;;;;;;1.13;0.90;;;12.40;99.90;;;;;;5051824;28;20488;-64
2022/10/16 02:55:42;;;;;;;2.20;1.02;;;12.40;99.90;;;;;;5051758;28;20048;-63
2022/10/16 02:58:11;;;;;;;2.90;0.90;;;12.40;99.90;;;;;;5017196;28;20523;-63
2022/10/16 03:00:36;;;;;;;1.88;0.98;;;12.40;99.90;;;;;;5051818;28;20037;-63
2022/10/16 03:03:02;;;;;;;0.95;0.70;;;12.40;99.90;;;;;;5051519;28;20116;-65
2022/10/16 03:05:37;;;;;;;1.38;1.00;;;12.40;99.90;;;;;;5051424;28;20124;-65
2022/10/16 03:08:03;;;;;;;2.05;0.88;;;12.40;99.90;;;;;;5051709;28;20124;-65
2022/10/16 03:10:28;;;;;;;2.08;0.95;;;12.40;99.90;;;;;;5017398;28;20041;-65
2022/10/16 03:12:54;;;;;;;1.45;0.82;;;12.40;99.90;;;;;;5051331;28;20040;-65
2022/10/16 03:15:20;;;;;;;3.00;1.20;;;12.60;99.90;;;;;;5051379;28;20140;-65
2022/10/16 03:17:46;;;;;;;1.10;0.73;;;12.60;99.90;;;;;;5051569;28;20119;-65
2022/10/16 03:20:11;;;;;;;2.70;1.10;;;12.40;99.90;;;;;;5051261;28;20037;-65
2022/10/16 03:22:37;;;;;;;3.25;1.02;;;12.40;99.90;;;;;;5033632;28;20051;-65
2022/10/16 03:25:03;;;;;;;1.35;0.80;;;12.40;99.90;;;;;;5051229;28;20575;-65
2022/10/16 03:27:34;;;;;;;1.98;1.10;;;12.20;99.90;;;;;;5034392;28;20052;-65
2022/10/16 03:30:00;;;;;;;1.88;0.82;;;12.50;99.90;;;;;;5055232;28;20049;-65
2022/10/16 03:32:28;;;;;;;1.20;0.75;;;12.50;99.90;;;;;;5037619;28;20107;-65
2022/10/16 03:34:56;;;;;;;0.63;0.50;;;12.50;99.90;;;;;;5054815;28;20045;-66
2022/10/16 03:37:25;;;;;;;3.65;1.02;;;12.50;99.90;;;;;;5054968;28;20048;-65
2022/10/16 03:39:51;;;;;;;1.00;0.68;;;12.50;99.90;;;;;;5054674;28;20040;-65
2022/10/16 03:42:17;;;;;;;2.60;0.90;;;12.50;99.90;;;;;;5037013;28;20033;-65
2022/10/16 03:44:42;;;;;;;5.25;0.90;;;12.50;99.90;;;;;;5054808;28;20087;-65
2022/10/16 03:47:08;;;;;;;1.98;0.80;;;12.50;99.90;;;;;;5020544;28;20446;-65
2022/10/16 03:49:34;;;;;;;1.58;0.90;;;12.40;99.90;;;;;;5036719;28;20530;-65
2022/10/16 03:52:00;;;;;;;1.73;0.90;;;12.40;99.90;;;;;;5036837;28;20472;-65
2022/10/16 03:54:26;;;;;;;1.15;0.80;;;12.40;99.90;;;;;;5054429;28;20123;-65
2022/10/16 03:56:51;;;;;;;2.15;1.05;;;12.40;99.90;;;;;;5054368;28;20124;-65
2022/10/16 03:59:17;;;;;;;1.58;1.00;;;12.40;99.90;;;;;;5036793;28;20437;-65
2022/10/16 04:01:43;;;;;;;1.42;0.95;;;12.40;99.90;;;;;;5019918;28;20041;-66
2022/10/16 04:04:09;;;;;;;0.73;0.55;;;12.40;99.90;;;;;;5054224;28;20041;-65
2022/10/16 04:06:34;;;;;;;1.65;0.90;;;12.40;99.90;;;;;;5054443;28;20125;-65
2022/10/16 04:09:00;;;;;;;1.00;0.90;;;12.40;99.90;;;;;;5054220;28;20053;-65
2022/10/16 04:11:25;;;;;;;1.55;0.93;;;12.30;99.90;;;;;;5036642;28;20048;-65
2022/10/16 04:13:51;;;;;;;0.98;0.82;;;12.30;99.90;;;;;;5054407;28;20044;-65
2022/10/16 04:16:17;;;;;;;1.35;0.80;;;12.30;99.90;;;;;;5053724;28;20067;-65
2022/10/16 04:18:43;;;;;;;1.52;1.00;;;12.30;99.90;;;;;;5054286;28;20045;-65
2022/10/16 04:21:09;;;;;;;1.35;0.73;;;12.20;99.90;;;;;;5054022;28;20105;-66
2022/10/16 04:23:34;;;;;;;4.72;1.00;;;12.20;99.90;;;;;;5054228;28;20073;-65
2022/10/16 04:26:00;;;;;;;1.25;1.05;;;12.20;99.90;;;;;;5054157;28;20495;-67
2022/10/16 04:28:26;;;;;;;1.85;0.90;;;12.20;99.90;;;;;;5035945;28;20178;-68
2022/10/16 04:30:52;;;;;;;4.13;1.25;;;12.20;99.90;;;;;;5054067;28;20073;-64
2022/10/16 04:33:18;;;;;;;1.52;1.10;;;12.30;99.90;;;;;;5054391;28;20452;-65
2022/10/16 04:35:44;;;;;;;1.65;0.88;;;11.90;99.90;;;;;;5053663;28;20554;-64
2022/10/16 04:38:12;;;;;;;1.10;0.75;;;12.30;99.90;;;;;;5053890;28;20059;-64
2022/10/16 04:40:38;;;;;;;1.73;0.80;;;12.30;99.90;;;;;;5034980;28;20037;-64
2022/10/16 04:43:05;;;;;;;3.90;0.90;;;12.30;99.90;;;;;;5053817;28;20040;-65
2022/10/16 04:45:31;;;;;;;0.77;0.63;;;12.30;99.90;;;;;;5035615;28;20123;-64
2022/10/16 04:47:58;;;;;;;2.15;1.30;;;12.30;99.90;;;;;;5053810;28;20112;-64
2022/10/16 04:50:23;;;;;;;1.50;1.00;;;12.20;99.90;;;;;;5035583;28;20076;-65
2022/10/16 04:52:49;;;;;;;2.20;1.27;;;12.20;99.90;;;;;;5053681;28;20073;-64
2022/10/16 04:55:15;;;;;;;2.55;1.15;;;12.20;99.90;;;;;;5053750;28;20028;-65
2022/10/16 04:57:41;;;;;;;1.95;0.98;;;12.20;99.90;;;;;;5035347;28;20116;-64
2022/10/16 05:00:11;;;;;;;2.30;0.88;;;12.20;99.90;;;;;;5053574;28;20036;-64
2022/10/16 05:02:36;;;;;;;1.85;1.10;;;12.30;99.90;;;;;;5053213;28;20045;-64
2022/10/16 05:05:02;;;;;;;6.53;1.10;;;12.30;99.90;;;;;;5053451;28;20048;-65
2022/10/16 05:07:28;;;;;;;2.42;1.00;;;12.30;99.90;;;;;;5035760;28;20111;-65
2022/10/16 05:09:54;;;;;;;1.13;0.90;;;12.30;99.90;;;;;;5053335;28;20041;-65
2022/10/16 05:12:20;;;;;;;2.05;1.00;;;12.40;99.90;;;;;;5035315;28;20124;-65
2022/10/16 05:14:46;;;;;;;2.22;1.00;;;12.40;99.90;;;;;;5035317;28;20090;-65
2022/10/16 05:17:11;;;;;;;2.92;1.02;;;12.40;99.90;;;;;;5051499;28;20123;-64
2022/10/16 05:19:40;;;;;;;3.17;1.85;;;12.40;99.90;;;;;;5052826;28;20048;-64
2022/10/16 05:22:05;;;;;;;1.63;1.02;;;12.40;99.90;;;;;;5035228;28;20040;-64
2022/10/16 05:24:31;;;;;;;1.80;1.20;;;12.50;99.90;;;;;;5052744;28;20044;-65
2022/10/16 05:26:57;;;;;;;2.53;1.20;;;12.50;99.90;;;;;;5034804;28;20106;-64
2022/10/16 05:29:23;;;;;;;1.65;1.00;;;12.40;99.90;;;;;;5034741;28;20048;-64
2022/10/16 05:31:54;;;;;;;2.88;1.05;;;12.50;99.90;;;;;;5052926;28;20512;-64
2022/10/16 05:34:21;;;;;;;1.58;1.05;;;12.50;99.90;;;;;;5018539;28;20049;-64
2022/10/16 05:36:46;;;;;;;1.95;1.00;;;12.40;99.90;;;;;;5034724;28;20048;-64
2022/10/16 05:39:14;;;;;;;1.40;0.88;;;12.50;99.90;;;;;;5034896;28;20041;-65
2022/10/16 05:41:40;;;;;;;2.05;1.23;;;12.40;99.90;;;;;;5052372;28;20052;-65
2022/10/16 05:44:06;;;;;;;1.27;0.77;;;12.50;99.90;;;;;;5052439;28;20039;-65
2022/10/16 05:46:32;;;;;;;1.95;1.08;;;12.50;99.90;;;;;;5052366;28;20124;-64
2022/10/16 05:48:58;;;;;;;3.20;1.20;;;12.40;99.90;;;;;;5052321;28;20047;-65
2022/10/16 05:51:24;;;;;;;2.95;1.30;;;12.50;99.90;;;;;;5052464;28;20049;-64
2022/10/16 05:53:49;;;;;;;2.67;1.35;;;12.50;99.90;;;;;;5052589;28;20176;-65
2022/10/16 05:56:15;;;;;;;0.90;0.70;;;12.50;99.90;;;;;;5052360;28;20398;-65
2022/10/16 05:58:41;;;;;;;3.88;1.20;;;12.50;99.90;;;;;;5034606;28;20033;-64
2022/10/16 06:01:11;;;;;;;3.08;1.30;;;12.50;99.90;;;;;;5052347;28;20036;-65
2022/10/16 06:03:37;;;;;;;2.22;1.20;;;12.50;99.90;;;;;;5052362;28;20037;-64
2022/10/16 06:06:15;;;;;;;2.28;1.10;;;12.50;99.90;;;;;;5034571;28;20464;-64
2022/10/16 06:08:42;;;;;;;2.05;0.85;;;12.50;99.90;;;;;;5033459;28;20041;-64
2022/10/16 06:11:20;;;;;;;2.63;0.85;;;12.50;99.90;;;;;;5051980;28;20037;-64
2022/10/16 06:13:49;;;;;;;2.10;1.30;;;12.50;99.90;;;;;;5034387;28;20064;-64
2022/10/16 06:16:18;;;;;;;1.60;1.10;;;12.50;99.90;;;;;;5051778;28;20535;-64
2022/10/16 06:18:44;;;;;;;2.42;1.00;;;13.10;99.90;;;;;;5052229;28;20556;-64
2022/10/16 06:21:15;;;;;;;1.83;1.10;;;12.50;99.90;;;;;;5033954;28;20084;-65
2022/10/16 06:23:42;;;;;;;2.08;1.08;;;12.50;99.90;;;;;;5052131;28;20488;-64
2022/10/16 06:26:12;;;;;;;1.65;0.95;;;12.50;99.90;;;;;;5051669;28;20090;-65
2022/10/16 06:28:38;;;;;;;1.20;0.77;;;12.50;99.90;;;;;;5033885;28;20055;-64
2022/10/16 06:31:06;;;;;;;2.53;0.73;;;12.50;99.90;;;;;;5052082;28;20045;-64
2022/10/16 06:33:32;;;;;;;2.20;1.00;;;12.50;99.90;;;;;;5033696;28;20044;-63
2022/10/16 06:36:09;;;;;;;2.03;1.10;;;12.50;99.90;;;;;;5051482;28;20044;-63
2022/10/16 06:38:35;;;;;;;2.92;1.02;;;12.50;99.90;;;;;;5033636;28;20037;-63
2022/10/16 06:41:01;;;;;;;1.40;1.00;;;12.50;99.90;;;;;;5051548;28;20032;-64
2022/10/16 06:43:31;;;;;;;1.48;0.90;;;12.50;99.90;;;;;;5033574;28;20501;-68
2022/10/16 06:45:59;;;;;;;3.38;1.00;;;12.50;99.90;;;;;;5051803;28;20202;-68
2022/10/16 06:48:24;;;;;;;2.28;1.00;;;12.60;99.90;;;;;;5033515;28;20052;-69
2022/10/16 06:51:12;;;;;;;2.00;0.80;;;12.60;99.90;;;;;;5033485;28;20053;-70
2022/10/16 06:53:48;;;;;;;1.95;0.80;;;12.60;99.90;;;;;;5051502;28;20040;-64
2022/10/16 06:56:22;;;;;;;2.95;1.17;;;12.60;99.90;;;;;;5051712;28;20048;-65
2022/10/16 06:58:48;;;;;;;0.98;0.80;;;12.60;99.90;;;;;;5051814;28;20044;-64
2022/10/16 07:01:16;;;;;;;2.58;1.20;;;12.60;99.90;;;;;;5034109;28;20397;-67
2022/10/16 07:03:43;;;;;;;1.17;0.88;;;12.70;99.90;;;;;;5054573;28;20123;-67
2022/10/16 07:06:12;;;;;;;3.63;1.00;;;12.80;99.90;;;;;;5055777;28;20052;-67
2022/10/16 07:08:40;;;;;;;1.48;0.75;;;12.80;99.90;;;;;;5037435;28;20044;-63
2022/10/16 07:11:08;;;;;;;2.08;0.85;;;12.80;99.90;;;;;;5055562;28;20037;-67
2022/10/16 07:13:35;;;;;;;2.00;0.82;;;12.80;99.90;;;;;;5037543;28;20044;-67
2022/10/16 07:16:12;;;;;;;2.05;0.90;;;12.80;99.90;;;;;;5055089;28;20547;-67
2022/10/16 07:18:40;;;;;;;6.30;1.10;;;12.90;99.90;;;;;;5037554;28;20396;-67
2022/10/16 07:21:07;;;;;;;3.33;1.02;;;12.90;99.90;;;;;;5021297;28;20049;-65
2022/10/16 07:23:33;;;;;;;1.40;0.90;;;12.90;99.90;;;;;;5036977;28;20068;-66
2022/10/16 07:25:59;;;;;;;1.40;0.77;;;13.00;99.90;;;;;;5055361;28;20044;-66
2022/10/16 07:28:25;;;;;;;2.97;0.98;;;13.00;99.90;;;;;;5055362;28;20053;-66
2022/10/16 07:30:51;;;;;;;2.08;1.00;;;13.00;99.90;;;;;;5055221;28;20048;-65
2022/10/16 07:33:16;;;;;;;0.70;0.70;;;13.00;99.90;;;;;;5055182;28;20040;-66
2022/10/16 07:35:53;;;;;;;2.33;1.02;;;13.10;99.90;;;;;;5054800;28;20055;-66
2022/10/16 07:38:19;;;;;;;1.65;0.80;;;13.10;99.90;;;;;;5037276;28;20073;-65
2022/10/16 07:40:45;;;;;;;0.88;0.63;;;13.20;99.90;;;;;;5055060;28;20524;-66
2022/10/16 07:43:11;;;;;;;2.85;1.00;;;13.20;99.90;;;;;;5055003;28;20040;-66
2022/10/16 07:45:38;;;;;;;1.25;0.70;;;13.30;99.90;;;;;;5055001;28;20041;-66
2022/10/16 07:48:04;;;;;;;2.20;0.80;;;13.30;99.90;;;;;;5054600;28;20036;-66
2022/10/16 07:50:29;;;;;;;1.25;0.70;;;13.40;99.90;;;;;;5054919;28;20128;-65
2022/10/16 07:52:55;;;;;;;0.50;0.50;;;13.40;99.90;;;;;;5054831;28;20041;-66
2022/10/16 07:55:20;;;;;;;2.50;1.05;;;13.40;99.90;;;;;;5020259;28;20400;-67
2022/10/16 07:57:46;;;;;;;0.80;0.60;;;13.50;99.90;;;;;;5054736;28;20502;-65
2022/10/16 08:00:13;;;;;;;0.80;0.60;;;13.50;99.90;;;;;;5036899;28;20049;-69
2022/10/16 08:02:42;;;;;;;2.20;0.80;;;13.50;99.90;;;;;;5054669;28;20041;-65
2022/10/16 08:05:08;;;;;;;0.85;0.60;;;13.50;99.90;;;;;;5054343;28;20051;-66
2022/10/16 08:07:34;;;;;;;0.82;0.50;;;13.50;99.90;;;;;;5036393;28;20049;-66
2022/10/16 08:10:00;;;;;;;1.67;0.90;;;13.50;99.90;;;;;;5054581;28;20051;-68
2022/10/16 08:12:26;;;;;;;1.33;0.85;;;13.50;99.90;;;;;;5036288;28;20045;-67
2022/10/16 08:14:51;;;;;;;0.95;0.75;;;13.50;99.90;;;;;;5035975;28;20045;-67
2022/10/16 08:17:17;;;;;;;0.88;0.60;;;13.50;99.90;;;;;;5054107;28;20459;-67
2022/10/16 08:19:47;;;;;;;0.43;0.40;;;13.50;99.90;;;;;;5054318;28;20538;-67
2022/10/16 08:22:14;;;;;;;1.60;0.93;;;13.60;99.90;;;;;;5036233;28;20100;-66
2022/10/16 08:24:40;;;;;;;1.00;0.60;;;13.60;99.90;;;;;;5054224;28;20037;-69
2022/10/16 08:27:06;;;;;;;1.40;0.60;;;13.60;99.90;;;;;;5053883;28;20041;-67
2022/10/16 08:29:32;;;;;;;2.38;0.75;;;13.60;99.90;;;;;;5036344;28;20562;-67
2022/10/16 08:31:58;;;;;;;2.05;0.75;;;13.80;99.90;;;;;;5053963;28;20115;-65
2022/10/16 08:34:24;;;;;;;1.52;0.50;;;13.80;99.90;;;;;;5053718;28;20071;-65
2022/10/16 08:36:49;;;;;;;2.03;1.00;;;13.90;99.90;;;;;;5035872;28;20041;-66
2022/10/16 08:39:16;;;;;;;3.83;0.77;;;13.80;99.90;;;;;;5054006;28;20120;-65
2022/10/16 08:42:10;;;;;;;1.95;0.60;;;13.80;99.90;;;;;;5053850;28;20484;-67
2022/10/16 08:45:04;;;;;;;0.85;0.52;;;13.80;99.90;;;;;;5035698;28;20071;-65
2022/10/16 08:47:45;;;;;;;1.63;0.70;;;13.90;99.90;;;;;;5053518;28;20045;-66
2022/10/16 08:50:21;;;;;;;1.08;0.52;;;14.00;99.90;;;;;;5053510;28;20480;-65
2022/10/16 08:52:46;;;;;;;0.65;0.47;;;14.10;99.90;;;;;;5053688;28;20120;-65
2022/10/16 08:55:40;;;;;;;0.52;0.25;;;14.10;99.90;;;;;;5053681;28;20120;-64
2022/10/16 08:58:18;;;;;;;2.25;0.73;;;14.20;99.90;;;;;;5021647;28;20053;-63
2022/10/16 09:01:09;;;;;;;1.27;0.50;;;14.20;99.90;;;;;;5053581;28;20047;-64
2022/10/16 09:04:11;;;;;;;1.65;0.60;;;14.20;99.90;;;;;;5052908;28;20040;-63
2022/10/16 09:06:44;;;;;;;0.73;0.30;;;14.40;99.90;;;;;;5053457;28;20045;-73
2022/10/16 09:09:12;;;;;;;1.10;0.43;;;14.40;99.90;;;;;;5035304;28;20693;-66
2022/10/16 09:11:46;;;;;;;1.55;0.43;;;14.50;99.90;;;;;;5053229;28;20194;-64
2022/10/16 09:14:37;;;;;;;0.60;0.40;;;14.60;99.90;;;;;;5053321;28;20444;-66
2022/10/16 09:17:18;;;;;;;0.88;0.28;;;14.60;99.90;;;;;;5052850;28;20510;-64
2022/10/16 09:19:55;;;;;;;2.08;0.63;;;14.60;99.90;;;;;;5053096;28;20051;-64
2022/10/16 09:22:26;;;;;;;3.28;0.70;;;14.60;99.90;;;;;;5053125;28;20041;-65
2022/10/16 09:24:52;;;;;;;0.82;0.40;;;14.60;99.90;;;;;;5052834;28;20036;-63
2022/10/16 09:27:17;;;;;;;1.95;0.88;;;14.60;99.90;;;;;;5052966;28;20036;-65
2022/10/16 09:29:43;;;;;;;1.05;0.55;;;14.60;99.90;;;;;;5053164;28;20080;-64
2022/10/16 09:32:13;;;;;;;4.40;0.65;;;14.60;99.90;;;;;;5035019;28;20049;-65
2022/10/16 09:34:45;;;;;;;1.05;0.90;;;14.70;99.90;;;;;;5034863;28;20041;-64
2022/10/16 09:37:16;;;;;;;2.03;0.55;;;14.70;99.90;;;;;;5052663;28;20056;-65
2022/10/16 09:39:54;;;;;;;3.70;0.70;;;14.80;99.90;;;;;;5053005;28;20044;-67
2022/10/16 09:42:33;;;;;;;2.08;1.08;;;14.90;99.90;;;;;;5052750;28;20041;-66
2022/10/16 09:44:59;;;;;;;1.95;0.68;;;14.90;99.90;;;;;;5052946;28;20051;-66
2022/10/16 09:47:27;;;;;;;3.80;0.52;;;15.00;99.90;;;;;;5052561;28;20039;-65
2022/10/16 09:49:55;;;;;;;4.18;0.77;;;15.00;99.90;;;;;;5052506;28;20037;-65
2022/10/16 09:52:21;;;;;;;3.13;0.57;;;15.00;99.90;;;;;;5052862;28;20036;-65
2022/10/16 09:55:15;;;;;;;0.82;0.70;;;15.20;99.90;;;;;;5034842;28;20053;-66
2022/10/16 09:57:54;;;;;;;1.70;0.60;;;15.20;99.90;;;;;;5052692;28;20048;-67
2022/10/16 10:00:21;;;;;;;1.98;0.45;;;15.20;99.90;;;;;;5052450;28;20044;-67
2022/10/16 10:02:48;;;;;;;8.35;2.20;;;15.30;99.90;;;;;;5052367;28;20174;-69
2022/10/16 10:05:27;;;;;;;6.13;1.30;;;15.40;99.90;;;;;;5052649;28;20126;-67
2022/10/16 10:07:58;;;;;;;3.80;0.88;;;15.50;99.90;;;;;;5034417;28;20049;-66
2022/10/16 10:10:30;;;;;;;4.25;1.05;;;15.70;99.90;;;;;;5052486;28;20119;-68
2022/10/16 10:12:56;;;;;;;7.00;0.90;;;15.90;99.90;;;;;;5052050;28;20044;-65
2022/10/16 10:15:24;;;;;;;2.28;0.60;;;16.00;99.90;;;;;;5034258;28;20065;-66
2022/10/16 10:17:56;;;;;;;3.13;0.63;;;16.10;99.90;;;;;;5052085;28;20451;-66
2022/10/16 10:20:37;;;;;;;3.28;0.65;;;16.20;99.90;;;;;;5052217;28;20552;-69
2022/10/16 10:23:39;;;;;;;6.15;0.63;;;16.10;99.90;;;;;;5033946;28;20041;-66
2022/10/16 10:26:20;;;;;;;4.28;0.70;;;16.00;99.90;;;;;;4971354;28;20532;-62
2022/10/16 10:29:09;;;;;;;1.33;0.65;;;16.10;99.90;;;;;;5026332;28;20052;-64
2022/10/16 10:32:03;;;;;;;1.83;0.43;;;16.10;99.90;;;;;;5052174;28;20045;-63
2022/10/16 10:35:01;;;;;;;2.88;0.63;;;16.10;99.90;;;;;;5052073;28;20041;-64
2022/10/16 10:37:58;;;;;;;2.63;0.70;;;16.10;99.90;;;;;;5048431;28;20496;-64
2022/10/16 10:40:49;;;;;;;1.05;0.40;;;16.10;99.90;;;;;;5038351;28;20044;-67
2022/10/16 10:43:21;;;;;;;5.82;0.70;;;16.00;99.90;;;;;;5055892;28;20041;-67
2022/10/16 10:45:50;;;;;;;2.38;0.50;;;15.90;99.90;;;;;;5037977;28;20407;-71
2022/10/16 10:48:26;;;;;;;1.17;0.35;;;16.00;99.90;;;;;;5037866;28;20124;-65
2022/10/16 10:51:04;;;;;;;3.13;0.50;;;15.90;99.90;;;;;;5056176;28;20124;-65
2022/10/16 10:54:07;;;;;;;2.75;0.47;;;15.90;99.90;;;;;;5037863;28;20049;-68
2022/10/16 10:56:56;;;;;;;3.85;0.82;;;15.80;99.90;;;;;;5055744;28;20086;-64
2022/10/16 10:59:52;;;;;;;1.75;0.50;;;16.00;99.90;;;;;;5055851;28;20077;-66
2022/10/16 11:02:42;;;;;;;6.13;0.95;;;16.00;99.90;;;;;;5055970;28;20076;-66
2022/10/16 11:05:22;;;;;;;2.08;0.70;;;16.00;99.90;;;;;;5037888;28;20045;-69
2022/10/16 11:08:26;;;;;;;1.40;0.50;;;15.90;99.90;;;;;;5037768;28;20049;-70
2022/10/16 11:10:58;;;;;;;5.22;0.50;;;15.90;99.90;;;;;;5021003;28;20052;-63
2022/10/16 11:13:32;;;;;;;1.63;0.70;;;15.90;99.90;;;;;;5055594;28;20059;-64
2022/10/16 11:16:02;;;;;;;8.52;0.90;;;15.90;99.90;;;;;;5055346;28;20089;-64
2022/10/16 11:18:47;;;;;;;0.47;0.40;;;16.10;99.90;;;;;;5055214;28;20123;-64
2022/10/16 11:21:16;;;;;;;2.70;0.77;;;16.20;99.90;;;;;;5055487;28;20271;-64
2022/10/16 11:24:13;;;;;;;7.10;1.05;;;16.30;97.70;;;;;;5055167;28;20532;-64
2022/10/16 11:26:42;;;;;;;4.13;1.00;;;16.20;99.10;;;;;;4983520;28;20137;-64
2022/10/16 11:29:17;;;;;;;2.95;0.65;;;16.20;99.90;;;;;;5037508;28;20541;-65
2022/10/16 11:31:49;;;;;;;1.52;0.93;;;16.20;99.90;;;;;;5055113;28;20075;-63
2022/10/16 11:34:38;;;;;;;0.75;0.50;;;16.20;99.90;;;;;;5055294;28;20072;-62
2022/10/16 11:37:09;;;;;;;1.38;0.50;;;16.20;99.70;;;;;;5055182;28;20037;-63
2022/10/16 11:39:37;;;;;;;6.63;0.85;;;16.10;97.40;;;;;;5036998;28;20044;-63
2022/10/16 11:42:13;;;;;;;1.75;0.63;;;16.20;98.90;;;;;;5055142;28;20025;-65
2022/10/16 11:44:48;;;;;;;1.98;0.80;;;16.40;97.90;;;;;;5054959;28;20059;-66
2022/10/16 11:47:43;;;;;;;4.32;0.85;;;16.40;96.50;;;;;;5054771;28;20049;-65
2022/10/16 11:50:39;;;;;;;1.10;0.63;;;16.50;97.20;;;;;;5054444;28;20044;-64
2022/10/16 11:53:13;;;;;;;1.23;0.50;;;16.60;95.30;;;;;;5054810;28;20079;-65
2022/10/16 11:55:41;;;;;;;3.10;0.75;;;16.70;95.40;;;;;;5054670;28;20115;-65
2022/10/16 11:58:28;;;;;;;3.40;0.82;;;16.60;94.50;;;;;;5036850;28;20041;-65
2022/10/16 12:01:17;;;;;;;1.83;0.70;;;16.60;94.60;;;;;;5054665;28;20060;-65
2022/10/16 12:03:46;;;;;;;2.15;0.60;;;16.60;94.00;;;;;;5036616;28;20440;-67
2022/10/16 12:06:28;;;;;;;3.65;0.47;;;16.40;94.30;;;;;;5054343;28;20045;-65
2022/10/16 12:08:56;;;;;;;5.78;0.60;;;16.30;95.70;;;;;;5054535;28;20370;-64
2022/10/16 12:11:27;;;;;;;1.00;0.38;;;16.40;95.80;;;;;;5054517;28;20053;-66
2022/10/16 12:14:26;;;;;;;5.13;0.93;;;16.50;92.80;;;;;;5036417;28;20504;-66
2022/10/16 12:16:55;;;;;;;1.35;0.40;;;16.60;92.50;;;;;;5052786;28;20102;-64
2022/10/16 12:19:22;;;;;;;2.58;0.43;;;16.90;95.70;;;;;;5054353;28;20041;-65
2022/10/16 12:21:49;;;;;;;4.32;0.68;;;17.10;90.70;;;;;;5054292;28;20179;-64
2022/10/16 12:24:34;;;;;;;2.28;0.90;;;17.30;90.20;;;;;;5053922;28;20098;-65
2022/10/16 12:27:01;;;;;;;3.53;0.75;;;17.20;92.70;;;;;;5054264;28;20052;-65
2022/10/16 12:29:47;;;;;;;3.20;0.70;;;17.00;92.00;;;;;;5053926;28;20045;-65
2022/10/16 12:32:52;;;;;;;5.07;0.60;;;16.90;90.00;;;;;;5053353;28;20136;-64
2022/10/16 12:35:29;;;;;;;1.08;0.30;;;16.80;90.00;;;;;;5013866;28;20102;-65
2022/10/16 12:38:13;;;;;;;2.03;0.43;;;16.60;91.10;;;;;;5053921;28;20044;-64
2022/10/16 12:40:39;;;;;;;6.45;0.60;;;16.50;91.00;;;;;;5053698;28;20037;-65
2022/10/16 12:43:32;;;;;;;2.88;0.50;;;16.40;85.60;;;;;;5035943;28;20040;-65
2022/10/16 12:46:06;;;;;;;5.70;0.80;;;16.30;89.90;;;;;;5005817;28;20404;-65
2022/10/16 12:48:32;;;;;;;2.10;0.55;;;16.30;91.60;;;;;;5035966;28;20033;-64
2022/10/16 12:51:12;;;;;;;3.92;0.80;;;16.40;92.30;;;;;;5053582;28;20496;-65
2022/10/16 12:53:38;;;;;;;1.90;0.50;;;16.40;85.00;;;;;;5053455;28;20090;-65
2022/10/16 12:56:10;;;;;;;1.83;0.57;;;16.40;80.70;;;;;;5053565;28;20051;-65
2022/10/16 12:58:53;;;;;;;3.80;0.80;;;16.50;84.80;;;;;;5035396;28;20087;-65
2022/10/16 13:01:44;;;;;;;1.15;0.32;;;16.50;76.20;;;;;;5052392;28;20057;-65
2022/10/16 13:04:31;;;;;;;6.22;0.77;;;16.50;78.50;;;;;;5019161;28;20041;-65
2022/10/16 13:07:32;;;;;;;1.77;0.40;;;16.40;70.10;;;;;;5053228;28;20079;-64
2022/10/16 13:10:07;;;;;;;2.28;0.82;;;16.50;79.70;;;;;;5053417;28;20041;-64